Time;durP1;ratioP1;P1;durP2;ratioP2;P2;SDS_P1;SDS_P2;PMS_P1;PMS_P2;Temp;Humidity;BMP_temperature;BMP_pressure;BME280_temperature;BME280_humidity;BME280_pressure;Samples;Min_cycle;Max_cycle;Signal;HPM_P1;HPM_P2
2021/09/14 00:01:57;;;;;;;10.63;9.07;;;;;;;14.46;100.00;101511.59;5260462;28;20040;-69
2021/09/14 00:04:28;;;;;;;12.73;9.48;;;;;;;14.42;100.00;101515.47;5261960;28;20277;-69
2021/09/14 00:07:00;;;;;;;14.02;10.20;;;;;;;14.42;100.00;101506.75;5262167;28;20063;-69
2021/09/14 00:09:31;;;;;;;12.00;9.90;;;;;;;14.38;100.00;101502.72;5263116;28;20056;-69
2021/09/14 00:12:04;;;;;;;10.68;8.60;;;;;;;14.38;100.00;101506.19;5263171;28;20088;-69
2021/09/14 00:14:35;;;;;;;11.73;9.83;;;;;;;14.39;100.00;101493.84;5263406;28;20025;-69
2021/09/14 00:17:06;;;;;;;12.95;10.45;;;;;;;14.35;100.00;101503.81;5266233;28;20302;-68
2021/09/14 00:19:38;;;;;;;13.48;10.43;;;;;;;14.33;100.00;101503.97;5265504;28;20024;-69
2021/09/14 00:22:09;;;;;;;11.35;10.18;;;;;;;14.31;100.00;101505.91;5264087;28;20159;-69
2021/09/14 00:24:40;;;;;;;11.98;10.55;;;;;;;14.32;100.00;101504.13;5266565;28;20436;-69
2021/09/14 00:27:11;;;;;;;12.88;10.68;;;;;;;14.26;100.00;101502.03;5263599;28;20032;-68
2021/09/14 00:29:43;;;;;;;12.95;10.82;;;;;;;14.23;100.00;101503.13;5265095;28;20025;-69
2021/09/14 00:32:14;;;;;;;13.18;9.70;;;;;;;14.24;100.00;101501.31;5266149;28;20116;-69
2021/09/14 00:34:45;;;;;;;11.00;9.88;;;;;;;14.26;100.00;101497.59;5267262;28;20037;-69
2021/09/14 00:37:17;;;;;;;11.63;10.32;;;;;;;14.22;100.00;101504.09;5266197;28;20454;-69
2021/09/14 00:39:48;;;;;;;11.50;10.30;;;;;;;14.16;100.00;101506.44;5263552;28;20567;-69
2021/09/14 00:42:19;;;;;;;12.25;10.23;;;;;;;14.16;100.00;101502.00;5265770;28;20048;-69
2021/09/14 00:44:51;;;;;;;12.75;10.75;;;;;;;14.15;100.00;101500.34;5264961;28;20028;-69
2021/09/14 00:47:22;;;;;;;16.25;11.43;;;;;;;14.08;100.00;101499.22;5259072;28;20062;-68
2021/09/14 00:49:54;;;;;;;14.00;10.82;;;;;;;14.07;100.00;101494.94;5265495;28;20037;-69
2021/09/14 00:52:26;;;;;;;14.80;12.00;;;;;;;14.10;100.00;101499.94;5264561;28;20036;-69
2021/09/14 00:54:57;;;;;;;12.27;10.98;;;;;;;14.05;100.00;101505.63;5263540;28;20029;-69
2021/09/14 00:57:29;;;;;;;12.95;11.20;;;;;;;13.99;100.00;101497.44;5263594;28;20039;-69
2021/09/14 01:00:00;;;;;;;13.95;11.10;;;;;;;14.02;100.00;101497.16;5260766;28;20451;-69
2021/09/14 01:02:31;;;;;;;14.75;11.43;;;;;;;13.99;100.00;101490.34;5262428;28;20516;-69
2021/09/14 01:05:03;;;;;;;12.13;10.82;;;;;;;13.96;100.00;101497.69;5261842;28;20977;-69
2021/09/14 01:07:35;;;;;;;14.02;10.25;;;;;;;13.91;100.00;101495.47;5265270;28;20038;-68
2021/09/14 01:10:07;;;;;;;13.65;11.82;;;;;;;13.91;100.00;101498.13;5259099;28;20025;-69
2021/09/14 01:12:39;;;;;;;12.15;10.70;;;;;;;13.97;100.00;101497.53;5263501;28;20032;-69
2021/09/14 01:15:10;;;;;;;13.18;11.38;;;;;;;13.95;100.00;101496.03;5262737;28;20549;-69
2021/09/14 01:17:42;;;;;;;13.50;11.45;;;;;;;13.97;100.00;101500.19;5264188;28;20073;-69
2021/09/14 01:20:13;;;;;;;13.52;11.75;;;;;;;13.89;100.00;101492.13;5261162;28;20021;-69
2021/09/14 01:22:45;;;;;;;13.27;11.75;;;;;;;13.85;100.00;101485.47;5260839;28;20090;-69
2021/09/14 01:25:21;;;;;;;14.85;11.27;;;;;;;13.88;100.00;101479.94;5261737;28;20025;-69
2021/09/14 01:27:56;;;;;;;13.70;11.93;;;;;;;13.83;100.00;101479.53;5260694;28;20036;-69
2021/09/14 01:30:27;;;;;;;14.40;11.93;;;;;;;13.78;100.00;101479.06;5261045;28;20029;-69
2021/09/14 01:32:59;;;;;;;12.80;11.48;;;;;;;13.87;100.00;101480.91;5260221;28;20029;-69
2021/09/14 01:35:31;;;;;;;14.73;12.00;;;;;;;13.77;100.00;101474.78;5272007;28;20111;-68
2021/09/14 01:38:03;;;;;;;14.30;12.57;;;;;;;13.70;100.00;101477.13;5259185;28;20033;-68
2021/09/14 01:40:35;;;;;;;14.02;11.82;;;;;;;13.68;100.00;101478.25;5261680;28;20402;-69
2021/09/14 01:43:07;;;;;;;15.80;13.13;;;;;;;13.68;100.00;101473.81;5262473;28;20029;-68
2021/09/14 01:45:38;;;;;;;15.23;12.33;;;;;;;13.76;100.00;101481.84;5262485;28;20043;-69
2021/09/14 01:48:09;;;;;;;14.82;12.02;;;;;;;13.70;100.00;101477.13;5262647;28;20025;-69
2021/09/14 01:50:41;;;;;;;13.77;12.18;;;;;;;13.68;100.00;101473.81;5261186;28;20025;-69
2021/09/14 01:53:13;;;;;;;14.32;12.35;;;;;;;13.61;100.00;101467.41;5262852;28;20733;-68
2021/09/14 01:55:45;;;;;;;15.40;13.63;;;;;;;13.66;100.00;101462.56;5261164;28;20028;-68
2021/09/14 01:58:18;;;;;;;17.70;13.80;;;;;;;13.65;100.00;101463.53;5258936;28;20544;-69
2021/09/14 02:01:14;;;;;;;17.25;13.07;;;;;;;13.66;100.00;101465.19;5260284;28;20043;-69
2021/09/14 02:03:54;;;;;;;14.43;12.98;;;;;;;13.57;100.00;101458.94;5260616;28;20422;-68
2021/09/14 02:59:39;;;;;;;19.52;16.40;;;;;;;13.19;100.00;101435.09;5261319;28;20025;-69
2021/09/14 03:02:10;;;;;;;18.35;16.42;;;;;;;13.21;100.00;101425.25;5259438;28;20024;-68
2021/09/14 03:04:42;;;;;;;18.23;16.13;;;;;;;13.17;100.00;101429.97;5261479;28;20055;-68
2021/09/14 03:07:13;;;;;;;17.83;16.05;;;;;;;13.18;100.00;101423.72;5259721;28;20047;-68
2021/09/14 03:09:44;;;;;;;18.45;16.55;;;;;;;13.15;100.00;101424.84;5257802;28;20045;-69
2021/09/14 03:12:16;;;;;;;18.80;16.30;;;;;;;13.13;100.00;101423.28;5261715;28;20025;-68
2021/09/14 03:14:49;;;;;;;19.77;16.23;;;;;;;13.10;100.00;101410.41;5257118;28;20032;-69
2021/09/14 03:17:20;;;;;;;25.33;17.42;;;;;;;13.13;100.00;101421.50;5260919;28;20095;-68
2021/09/14 03:19:51;;;;;;;17.95;16.08;;;;;;;13.06;100.00;101404.56;5260354;28;20024;-68
2021/09/14 03:22:22;;;;;;;20.20;16.13;;;;;;;13.06;100.00;101404.56;5258946;28;20033;-69
2021/09/14 03:24:54;;;;;;;22.13;17.38;;;;;;;13.05;100.00;101407.34;5257028;28;20029;-68
2021/09/14 03:27:25;;;;;;;20.42;16.58;;;;;;;12.99;100.00;101395.53;5259469;28;20017;-68
2021/09/14 03:29:56;;;;;;;18.00;16.10;;;;;;;13.01;100.00;101382.28;5260067;28;20017;-68
2021/09/14 03:32:28;;;;;;;21.23;17.58;;;;;;;12.99;100.00;101384.19;5257242;28;20498;-69
2021/09/14 03:34:59;;;;;;;20.25;18.10;;;;;;;12.94;100.00;101374.06;5260643;28;20035;-68
2021/09/14 03:37:30;;;;;;;21.75;17.63;;;;;;;12.92;100.00;101378.66;5258465;28;20394;-68
2021/09/14 03:40:02;;;;;;;19.92;17.60;;;;;;;12.90;100.00;101383.19;5260294;28;20466;-68
2021/09/14 03:42:34;;;;;;;19.25;16.98;;;;;;;12.94;100.00;101384.59;5263130;28;20462;-69
2021/09/14 03:45:05;;;;;;;22.88;18.27;;;;;;;12.91;100.00;101385.69;5259114;28;20043;-68
2021/09/14 03:47:36;;;;;;;22.63;18.88;;;;;;;12.88;100.00;101393.84;5261485;28;20064;-68
2021/09/14 03:50:08;;;;;;;21.23;18.33;;;;;;;12.87;100.00;101389.53;5262306;28;20040;-68
2021/09/14 03:52:40;;;;;;;22.30;17.05;;;;;;;12.88;100.00;101391.22;5265663;28;20502;-67
2021/09/14 03:55:11;;;;;;;18.85;16.52;;;;;;;12.85;100.00;101394.13;5264843;28;20037;-68
2021/09/14 03:57:43;;;;;;;20.02;16.77;;;;;;;12.87;100.00;101391.34;5263275;28;20116;-68
2021/09/14 04:00:14;;;;;;;21.65;17.67;;;;;;;12.85;100.00;101399.38;5263913;28;20029;-68
2021/09/14 04:02:48;;;;;;;18.60;16.60;;;;;;;12.86;100.00;101401.03;5263120;28;20090;-68
2021/09/14 04:08:50;;;;;;;20.00;17.90;;;;;;;12.84;100.00;101389.81;5262094;28;20114;-67
2021/09/14 04:10:45;;;;;;;22.02;18.15;;;;;;;12.80;100.00;101385.78;5262096;28;20049;-68
2021/09/14 04:13:16;;;;;;;20.02;17.85;;;;;;;12.75;100.00;101380.09;5263921;28;20491;-68
2021/09/14 04:15:48;;;;;;;20.00;17.80;;;;;;;12.73;100.00;101386.41;5262802;28;20033;-69
2021/09/14 04:18:19;;;;;;;20.88;18.23;;;;;;;12.75;100.00;101380.09;5262205;28;20041;-68
2021/09/14 04:20:50;;;;;;;20.73;18.25;;;;;;;12.74;100.00;101377.59;5263163;28;20024;-68
2021/09/14 04:23:21;;;;;;;21.38;18.90;;;;;;;12.74;100.00;101367.91;5263722;28;20036;-68
2021/09/14 04:25:53;;;;;;;20.55;18.30;;;;;;;12.75;100.00;101374.81;5264321;28;20047;-68
2021/09/14 04:28:24;;;;;;;20.52;18.33;;;;;;;12.74;100.00;101378.44;5260732;28;20409;-68
2021/09/14 04:30:55;;;;;;;20.15;17.60;;;;;;;12.72;100.00;101385.59;5264577;28;20043;-68
2021/09/14 04:33:27;;;;;;;20.85;17.52;;;;;;;12.71;100.00;101378.69;5262792;28;20017;-68
2021/09/14 04:35:58;;;;;;;21.42;19.02;;;;;;;12.72;100.00;101382.13;5257278;28;20025;-68
2021/09/14 04:38:29;;;;;;;22.67;18.55;;;;;;;12.73;100.00;101382.03;5264662;28;20040;-67
2021/09/14 04:41:01;;;;;;;21.67;19.30;;;;;;;12.70;100.00;101381.44;5263592;28;20032;-68
2021/09/14 04:43:32;;;;;;;20.80;18.63;;;;;;;12.68;100.00;101378.94;5263358;28;20039;-68
2021/09/14 04:46:04;;;;;;;19.92;17.92;;;;;;;12.66;100.00;101373.00;5262570;28;20602;-68
2021/09/14 04:48:36;;;;;;;21.75;18.50;;;;;;;12.67;100.00;101374.66;5263281;28;20803;-69
2021/09/14 04:51:07;;;;;;;20.27;17.83;;;;;;;12.65;100.00;101382.69;5262864;28;20109;-67
2021/09/14 04:53:38;;;;;;;21.33;19.02;;;;;;;12.65;100.00;101384.44;5264310;28;20033;-68
2021/09/14 04:56:10;;;;;;;20.95;18.70;;;;;;;12.66;100.00;101375.63;5262106;28;20024;-68
2021/09/14 04:58:43;;;;;;;20.65;18.52;;;;;;;12.65;100.00;101390.56;5261600;28;20557;-67
2021/09/14 05:01:14;;;;;;;;;;;;;;;12.98;100.00;101385.16;5262331;28;20029;-69
2021/09/14 05:03:47;;;;;;;19.40;17.13;;;;;;;12.64;100.00;101382.78;5262127;28;19943;-68
2021/09/14 05:06:18;;;;;;;20.02;18.05;;;;;;;12.67;100.00;101382.53;5261819;28;20062;-67
2021/09/14 05:08:50;;;;;;;22.42;18.92;;;;;;;12.59;100.00;101367.41;5261424;28;20078;-68
2021/09/14 05:11:21;;;;;;;22.30;18.05;;;;;;;12.66;100.00;101375.63;5265469;28;20031;-67
2021/09/14 05:13:52;;;;;;;20.95;17.92;;;;;;;12.65;100.00;101379.19;5263102;28;20016;-66
2021/09/14 05:16:24;;;;;;;22.38;20.02;;;;;;;12.59;100.00;101377.09;5257439;28;20024;-67
2021/09/14 05:18:56;;;;;;;23.25;18.95;;;;;;;12.63;100.00;101387.22;5264534;28;20035;-67
2021/09/14 05:21:27;;;;;;;24.27;18.05;;;;;;;12.60;100.00;101389.28;5262707;28;20409;-68
2021/09/14 05:23:58;;;;;;;21.60;19.42;;;;;;;12.60;100.00;101386.66;5266152;28;20035;-65
2021/09/14 05:26:29;;;;;;;21.15;18.85;;;;;;;12.63;100.00;101384.59;5267183;28;20048;-66
2021/09/14 05:29:01;;;;;;;21.00;18.67;;;;;;;12.62;100.00;101379.47;5268486;28;20029;-67
2021/09/14 05:31:34;;;;;;;22.95;19.98;;;;;;;12.62;100.00;101374.22;5267683;28;20350;-66
2021/09/14 05:34:06;;;;;;;24.13;19.65;;;;;;;12.61;100.00;101370.75;5266308;28;20036;-69
2021/09/14 05:36:38;;;;;;;24.73;19.15;;;;;;;12.69;100.00;101375.38;5266010;28;20044;-66
2021/09/14 05:39:09;;;;;;;22.10;19.67;;;;;;;12.67;100.00;101377.28;5266286;28;20044;-67
2021/09/14 05:41:40;;;;;;;23.75;20.17;;;;;;;12.70;100.00;101370.94;5267199;28;20410;-66
2021/09/14 05:44:12;;;;;;;22.85;20.00;;;;;;;12.72;100.00;101359.31;5268210;28;20017;-68
2021/09/14 05:46:43;;;;;;;23.25;19.63;;;;;;;12.73;100.00;101354.88;5266860;28;20119;-66
2021/09/14 05:49:14;;;;;;;23.40;19.65;;;;;;;12.74;100.00;101353.94;5268027;28;20021;-66
2021/09/14 05:51:46;;;;;;;23.08;20.67;;;;;;;12.71;100.00;101352.38;5267356;28;20051;-66
2021/09/14 05:54:17;;;;;;;23.40;20.27;;;;;;;12.75;100.00;101352.97;5273201;28;20037;-66
2021/09/14 05:56:48;;;;;;;28.63;21.40;;;;;;;12.73;100.00;101350.47;5265928;28;20024;-67
2021/09/14 05:59:19;;;;;;;23.85;20.42;;;;;;;12.74;100.00;101346.03;5260583;28;20104;-67
2021/09/14 06:01:51;;;;;;;24.38;21.13;;;;;;;12.74;100.00;101346.88;5261065;28;20035;-66
2021/09/14 06:04:22;;;;;;;24.23;20.98;;;;;;;12.78;100.00;101343.00;5260566;28;20067;-68
2021/09/14 06:06:53;;;;;;;25.60;20.67;;;;;;;12.80;100.00;101343.69;5259694;28;20025;-67
2021/09/14 06:09:24;;;;;;;24.23;21.48;;;;;;;12.82;100.00;101349.66;5261117;28;20041;-68
2021/09/14 06:11:56;;;;;;;25.63;22.30;;;;;;;12.83;100.00;101350.50;5264319;28;20020;-68
2021/09/14 06:14:27;;;;;;;24.02;21.45;;;;;;;12.84;100.00;101345.13;5263172;28;20082;-68
2021/09/14 06:16:58;;;;;;;24.88;22.30;;;;;;;12.88;100.00;101361.47;5265624;28;20029;-68
2021/09/14 06:19:29;;;;;;;25.42;22.35;;;;;;;12.92;100.00;101357.63;5261706;28;20605;-65
2021/09/14 06:22:02;;;;;;;26.65;22.85;;;;;;;12.94;100.00;101357.47;5261649;28;20678;-67
2021/09/14 06:24:34;;;;;;;23.17;20.65;;;;;;;12.96;100.00;101356.38;5260978;28;20032;-68
2021/09/14 06:27:05;;;;;;;24.02;20.85;;;;;;;12.99;100.00;101360.53;5260843;28;20501;-67
2021/09/14 06:29:38;;;;;;;22.95;20.45;;;;;;;13.03;100.00;101367.19;5261412;28;20040;-66
2021/09/14 06:32:10;;;;;;;23.38;20.77;;;;;;;13.05;100.00;101375.78;5262279;28;20029;-66
2021/09/14 06:34:41;;;;;;;27.52;22.42;;;;;;;13.08;100.00;101367.63;5261716;28;20021;-68
2021/09/14 06:37:12;;;;;;;25.60;22.08;;;;;;;13.11;100.00;101370.00;5248905;28;20112;-66
2021/09/14 06:39:43;;;;;;;23.48;20.90;;;;;;;13.16;100.00;101362.53;5258965;28;20028;-67
2021/09/14 06:42:15;;;;;;;25.83;23.13;;;;;;;13.22;100.00;101366.41;5261267;28;20040;-67
2021/09/14 06:44:46;;;;;;;24.90;22.10;;;;;;;13.25;100.00;101364.38;5262228;28;20036;-67
2021/09/14 06:47:17;;;;;;;25.40;22.33;;;;;;;13.30;100.00;101375.34;5263281;28;20036;-67
2021/09/14 06:49:49;;;;;;;26.10;21.73;;;;;;;13.27;100.00;101356.34;5262743;28;20135;-68
2021/09/14 06:52:20;;;;;;;27.38;24.02;;;;;;;13.38;100.00;101366.78;5256484;28;20079;-67
2021/09/14 06:54:51;;;;;;;25.60;22.90;;;;;;;13.42;100.00;101362.91;5261796;28;20040;-67
2021/09/14 06:57:23;;;;;;;26.30;23.38;;;;;;;13.49;100.00;101357.94;5259238;28;20033;-67
2021/09/14 06:59:54;;;;;;;26.33;21.23;;;;;;;13.57;100.00;101347.53;5261172;28;20025;-67
2021/09/14 07:02:25;;;;;;;24.58;21.95;;;;;;;13.62;100.00;101343.50;5260003;28;20028;-69
2021/09/14 07:04:57;;;;;;;28.65;22.70;;;;;;;13.73;100.00;101353.09;5255475;28;20637;-68
2021/09/14 07:07:29;;;;;;;25.30;22.80;;;;;;;13.79;100.00;101349.91;5261076;28;20414;-68
2021/09/14 07:10:03;;;;;;;27.17;23.20;;;;;;;13.87;100.00;101352.69;5262718;28;20017;-68
2021/09/14 07:12:34;;;;;;;27.00;22.60;;;;;;;13.94;100.00;101352.97;5258341;28;20104;-68
2021/09/14 07:15:06;;;;;;;25.30;21.70;;;;;;;13.98;100.00;101348.22;5258065;28;20124;-67
2021/09/14 07:17:37;;;;;;;24.33;21.73;;;;;;;14.06;100.00;101337.84;5262201;28;20036;-68
2021/09/14 07:20:09;;;;;;;26.40;23.45;;;;;;;14.13;100.00;101341.56;5261689;28;20020;-69
2021/09/14 07:22:41;;;;;;;25.40;22.63;;;;;;;14.22;100.00;101343.34;5263031;28;20037;-67
2021/09/14 07:25:13;;;;;;;26.48;23.77;;;;;;;14.27;100.00;101341.09;5261144;28;20025;-68
2021/09/14 07:27:45;;;;;;;25.13;22.55;;;;;;;14.38;100.00;101352.47;5262311;28;20033;-67
2021/09/14 07:30:16;;;;;;;26.60;23.90;;;;;;;14.48;100.00;101348.00;5260622;28;20033;-67
2021/09/14 07:32:54;;;;;;;26.02;23.23;;;;;;;14.56;100.00;101342.88;5262106;28;20033;-68
2021/09/14 07:35:26;;;;;;;24.73;22.17;;;;;;;14.67;100.00;101345.34;5262543;28;20029;-67
2021/09/14 07:37:58;;;;;;;26.88;24.10;;;;;;;14.72;100.00;101339.63;5262544;28;20029;-68
2021/09/14 07:40:29;;;;;;;24.73;22.13;;;;;;;14.81;100.00;101350.16;5261778;28;20035;-67
2021/09/14 07:43:01;;;;;;;25.98;23.38;;;;;;;14.94;100.00;101343.69;5261570;28;20028;-68
2021/09/14 07:45:33;;;;;;;25.67;23.02;;;;;;;15.01;100.00;101350.88;5262898;28;20162;-68
2021/09/14 07:48:05;;;;;;;27.73;24.90;;;;;;;15.19;100.00;101343.03;5262111;28;20091;-68
2021/09/14 07:50:36;;;;;;;26.20;23.30;;;;;;;15.30;100.00;101350.72;5259191;28;20024;-68
2021/09/14 07:53:07;;;;;;;25.63;23.10;;;;;;;15.47;100.00;101342.97;5263169;28;20040;-68
2021/09/14 07:55:39;;;;;;;24.88;22.38;;;;;;;15.61;100.00;101328.41;5263352;28;20056;-68
2021/09/14 07:58:10;;;;;;;26.02;21.95;;;;;;;15.76;100.00;101333.06;5261429;28;20032;-68
2021/09/14 08:00:41;;;;;;;23.40;20.88;;;;;;;15.92;100.00;101326.25;5260520;28;20032;-68
2021/09/14 08:03:13;;;;;;;25.00;22.02;;;;;;;16.13;100.00;101331.19;5261956;28;20052;-68
2021/09/14 08:05:44;;;;;;;25.20;21.25;;;;;;;16.21;100.00;101329.44;5260265;28;20028;-66
2021/09/14 08:08:15;;;;;;;23.27;20.40;;;;;;;16.39;100.00;101331.19;5262173;28;20124;-68
2021/09/14 08:10:47;;;;;;;22.15;19.88;;;;;;;16.43;100.00;101343.09;5261964;28;20040;-68
2021/09/14 08:13:18;;;;;;;20.27;17.77;;;;;;;16.49;100.00;101345.97;5263260;28;20029;-68
2021/09/14 08:15:50;;;;;;;21.05;18.85;;;;;;;16.51;100.00;101348.44;5261239;28;20025;-68
2021/09/14 08:18:21;;;;;;;27.05;19.13;;;;;;;16.58;100.00;101344.19;5261620;28;20044;-67
2021/09/14 08:20:52;;;;;;;22.08;19.58;;;;;;;16.62;100.00;101350.00;5261441;28;20029;-68
2021/09/14 08:23:24;;;;;;;22.42;19.38;;;;;;;16.72;100.00;101356.00;5260276;28;20036;-68
2021/09/14 08:25:55;;;;;;;20.00;17.23;;;;;;;16.80;100.00;101358.72;5262232;28;20028;-68
2021/09/14 08:28:27;;;;;;;20.50;17.98;;;;;;;16.87;100.00;101351.81;5261965;28;20028;-68
2021/09/14 08:30:59;;;;;;;23.40;18.27;;;;;;;16.98;100.00;101345.41;5265632;28;20032;-68
2021/09/14 08:33:30;;;;;;;19.65;17.60;;;;;;;17.07;100.00;101352.38;5263868;28;20587;-68
2021/09/14 08:36:01;;;;;;;22.10;19.90;;;;;;;17.08;100.00;101356.69;5263540;28;20028;-68
2021/09/14 08:38:32;;;;;;;20.52;18.52;;;;;;;17.15;100.00;101356.88;5265394;28;20029;-66
2021/09/14 08:41:05;;;;;;;20.50;18.45;;;;;;;17.20;100.00;101355.41;5264044;28;20013;-67
2021/09/14 08:43:42;;;;;;;20.60;18.45;;;;;;;17.30;100.00;101349.97;5263293;28;20025;-67
2021/09/14 08:46:15;;;;;;;22.25;19.88;;;;;;;17.36;100.00;101345.84;5266218;28;20028;-68
2021/09/14 08:48:49;;;;;;;20.60;18.50;;;;;;;17.44;100.00;101336.09;5265342;28;20368;-68
2021/09/14 08:51:20;;;;;;;21.02;19.02;;;;;;;17.55;100.00;101345.56;5264054;28;20036;-67
2021/09/14 08:53:51;;;;;;;20.92;18.65;;;;;;;17.60;100.00;101343.22;5265319;28;20020;-68
2021/09/14 08:56:23;;;;;;;20.77;18.60;;;;;;;17.67;100.00;101349.53;5265952;28;20124;-67
2021/09/14 08:58:56;;;;;;;21.57;19.37;;;;;;;17.71;100.00;101347.38;5265663;28;20108;-68
2021/09/14 09:01:28;;;;;;;20.63;18.63;;;;;;;17.81;100.00;101349.94;5263565;28;20630;-68
2021/09/14 09:04:04;;;;;;;20.48;18.40;;;;;;;18.12;100.00;101350.91;5265779;28;20025;-68
2021/09/14 09:06:38;;;;;;;24.13;18.05;;;;;;;18.33;100.00;101350.38;5265434;28;20060;-68
2021/09/14 09:09:14;;;;;;;21.23;17.88;;;;;;;18.37;100.00;101345.56;5263321;28;20048;-67
2021/09/14 09:11:58;;;;;;;19.27;17.23;;;;;;;18.47;100.00;101352.34;5266069;28;20024;-69
2021/09/14 09:14:41;;;;;;;21.48;19.17;;;;;;;18.46;100.00;101341.91;5267059;28;20043;-68
2021/09/14 09:17:15;;;;;;;20.60;18.40;;;;;;;18.34;100.00;101333.47;5265099;28;20418;-69
2021/09/14 09:19:58;;;;;;;19.75;17.67;;;;;;;18.49;100.00;101325.66;5260780;28;20175;-68
2021/09/14 09:22:29;;;;;;;26.35;18.58;;;;;;;18.60;100.00;101325.28;5267026;28;20152;-68
2021/09/14 09:25:01;;;;;;;19.77;17.67;;;;;;;18.75;100.00;101314.78;5263983;28;20648;-69
2021/09/14 09:27:33;;;;;;;21.50;19.00;;;;;;;18.84;100.00;101310.28;5268910;28;20036;-69
2021/09/14 09:30:06;;;;;;;24.93;18.33;;;;;;;18.89;100.00;101314.06;5262049;28;20305;-68
2021/09/14 09:32:48;;;;;;;21.17;18.23;;;;;;;18.96;100.00;101317.69;5263270;28;20040;-68
2021/09/14 09:35:27;;;;;;;20.27;18.17;;;;;;;19.05;100.00;101318.47;5264350;28;20051;-68
2021/09/14 09:38:00;;;;;;;19.67;17.65;;;;;;;19.09;100.00;101317.13;5263978;28;20028;-68
2021/09/14 09:40:36;;;;;;;21.98;17.80;;;;;;;19.20;100.00;101319.38;5264211;28;20017;-69
2021/09/14 09:43:09;;;;;;;19.02;17.00;;;;;;;19.18;100.00;101326.69;5262432;28;20098;-68
2021/09/14 09:45:43;;;;;;;20.05;17.92;;;;;;;19.16;100.00;101323.38;5263483;28;20029;-68
2021/09/14 09:48:16;;;;;;;20.45;18.25;;;;;;;19.38;100.00;101328.91;5263686;28;20025;-69
2021/09/14 09:50:47;;;;;;;18.20;16.30;;;;;;;19.51;100.00;101329.16;5261764;28;20557;-68
2021/09/14 09:53:19;;;;;;;17.97;16.17;;;;;;;19.83;100.00;101327.28;5264349;28;20232;-69
2021/09/14 09:55:50;;;;;;;19.47;16.13;;;;;;;20.15;100.00;101328.81;5264398;28;20047;-69
2021/09/14 09:58:22;;;;;;;17.97;15.10;;;;;;;20.38;100.00;101320.75;5263650;28;20074;-68
2021/09/14 10:01:12;;;;;;;17.13;15.33;;;;;;;20.65;100.00;101320.16;5261894;28;20081;-68
2021/09/14 10:03:48;;;;;;;17.55;15.75;;;;;;;20.62;100.00;101319.72;5261684;28;20071;-68
2021/09/14 10:06:22;;;;;;;18.17;15.50;;;;;;;20.76;100.00;101328.69;5266229;28;20020;-69
2021/09/14 10:08:55;;;;;;;17.65;14.20;;;;;;;20.86;100.00;101321.22;5263798;28;20119;-69
2021/09/14 10:11:29;;;;;;;18.45;13.55;;;;;;;21.08;100.00;101314.94;5263227;28;20029;-69
2021/09/14 10:14:03;;;;;;;15.93;13.63;;;;;;;21.22;100.00;101312.44;5262324;28;20028;-69
2021/09/14 10:16:37;;;;;;;14.88;13.18;;;;;;;21.36;100.00;101306.25;5262740;28;20135;-68
2021/09/14 10:19:12;;;;;;;15.98;13.50;;;;;;;21.61;100.00;101309.38;5263691;28;20398;-69
2021/09/14 10:21:58;;;;;;;15.20;13.25;;;;;;;21.96;100.00;101309.44;5259636;28;20051;-68
2021/09/14 10:24:30;;;;;;;14.40;12.60;;;;;;;22.03;100.00;101305.81;5260384;28;20151;-68
2021/09/14 10:27:04;;;;;;;15.50;12.52;;;;;;;22.03;100.00;101295.13;5264788;28;20029;-68
2021/09/14 10:29:36;;;;;;;15.55;11.48;;;;;;;22.04;100.00;101298.63;5263025;28;20166;-67
2021/09/14 10:32:12;;;;;;;14.48;11.23;;;;;;;22.16;100.00;101289.09;5264824;28;20036;-66
2021/09/14 10:34:56;;;;;;;12.05;10.77;;;;;;;22.33;100.00;101295.75;5264895;28;21068;-68
2021/09/14 10:37:31;;;;;;;12.32;9.68;;;;;;;22.46;100.00;101300.34;5265369;28;20483;-69
2021/09/14 10:40:22;;;;;;;10.88;9.75;;;;;;;22.55;100.00;101288.50;5264183;28;20516;-69
2021/09/14 10:42:57;;;;;;;13.73;10.80;;;;;;;22.52;100.00;101285.41;5264133;28;20411;-69
2021/09/14 10:45:40;;;;;;;12.02;9.70;;;;;;;22.70;100.00;101282.19;5263498;28;20043;-69
2021/09/14 10:48:26;;;;;;;15.25;9.88;;;;;;;22.86;100.00;101284.50;5257542;28;20036;-67
2021/09/14 10:51:12;;;;;;;12.05;9.48;;;;;;;23.03;100.00;101274.31;5258885;28;20377;-69
2021/09/14 10:53:58;;;;;;;13.65;10.25;;;;;;;23.24;100.00;101276.81;5260798;28;20029;-67
2021/09/14 10:56:29;;;;;;;10.35;8.82;;;;;;;23.27;100.00;101267.59;5263093;28;20036;-69
2021/09/14 10:59:01;;;;;;;9.50;8.70;;;;;;;23.13;100.00;101271.25;5262378;28;20013;-69
2021/09/14 11:01:32;;;;;;;11.80;9.20;;;;;;;23.08;100.00;101271.88;5260816;28;20082;-68
2021/09/14 11:04:07;;;;;;;12.03;9.13;;;;;;;23.17;100.00;101259.94;5262243;28;20113;-69
2021/09/14 11:06:39;;;;;;;10.88;9.77;;;;;;;23.02;100.00;101253.97;5263647;28;20028;-69
2021/09/14 11:09:10;;;;;;;11.03;9.27;;;;;;;23.09;100.00;101259.31;5261272;28;20056;-69
2021/09/14 11:11:49;;;;;;;11.65;10.45;;;;;;;23.15;100.00;101253.19;5263779;28;20513;-68
2021/09/14 11:14:20;;;;;;;12.25;9.07;;;;;;;23.33;100.00;101242.69;5260603;28;20482;-69
2021/09/14 11:16:52;;;;;;;11.40;9.90;;;;;;;23.43;100.00;101242.28;5262503;28;20033;-69
2021/09/14 11:19:24;;;;;;;12.07;9.30;;;;;;;23.54;100.00;101242.50;5260810;28;20504;-69
2021/09/14 11:21:56;;;;;;;10.85;7.78;;;;;;;23.79;100.00;101247.25;5263806;28;20369;-69
2021/09/14 11:24:27;;;;;;;9.67;8.43;;;;;;;23.92;100.00;101239.19;5262104;28;20032;-69
2021/09/14 11:26:58;;;;;;;9.13;8.10;;;;;;;23.95;100.00;101235.28;5260705;28;20017;-69
2021/09/14 11:29:30;;;;;;;8.80;8.00;;;;;;;24.07;100.00;101244.31;5244477;28;20113;-68
2021/09/14 11:32:12;;;;;;;11.37;8.90;;;;;;;24.03;100.00;101235.06;5264528;28;20085;-68
2021/09/14 11:34:44;;;;;;;;;;;;;;;24.34;100.00;101238.91;5265378;28;20082;-68
2021/09/14 11:37:29;;;;;;;8.70;7.68;;;;;;;24.28;100.00;101232.50;5265104;28;20437;-68
2021/09/14 11:40:00;;;;;;;10.32;8.25;;;;;;;24.29;100.00;101228.81;5262643;28;20063;-69
2021/09/14 11:42:32;;;;;;;10.00;8.40;;;;;;;24.38;100.00;101238.25;5260846;28;20033;-69
2021/09/14 11:45:06;;;;;;;12.33;7.70;;;;;;;24.55;100.00;101240.47;5259813;28;20466;-69
2021/09/14 11:47:42;;;;;;;9.23;7.57;;;;;;;24.63;100.00;101234.91;5262052;28;20028;-68
2021/09/14 11:50:25;;;;;;;8.70;7.80;;;;;;;24.82;100.00;101235.84;5263384;28;20091;-69
2021/09/14 11:53:22;;;;;;;10.35;8.20;;;;;;;24.89;100.00;101224.03;5261742;28;20032;-69
2021/09/14 11:55:53;;;;;;;9.10;8.18;;;;;;;24.76;100.00;101218.75;5259773;28;20041;-68
2021/09/14 11:58:32;;;;;;;9.40;7.80;;;;;;;24.92;100.00;101223.59;5260670;28;20028;-68
2021/09/14 12:01:09;;;;;;;9.98;7.53;;;;;;;24.84;100.00;101223.84;5260713;28;20028;-69
2021/09/14 12:03:48;;;;;;;8.65;7.53;;;;;;;24.94;100.00;101216.16;5264328;28;20505;-68
2021/09/14 12:06:25;;;;;;;8.32;7.38;;;;;;;24.98;100.00;101221.91;5264105;28;20077;-69
2021/09/14 12:09:08;;;;;;;7.88;6.40;;;;;;;25.03;100.00;101221.25;5265690;28;20060;-69
2021/09/14 12:11:39;;;;;;;;;;;;;;;25.27;100.00;101215.16;5266727;28;20517;-69
2021/09/14 12:14:17;;;;;;;9.07;7.03;;;;;;;24.91;100.00;101224.63;5266947;28;19908;-68
2021/09/14 12:16:57;;;;;;;8.85;7.60;;;;;;;24.90;100.00;101216.81;5266961;28;20033;-69
2021/09/14 12:19:29;;;;;;;8.57;7.78;;;;;;;24.69;100.00;101220.63;5265766;28;20048;-68
2021/09/14 12:22:01;;;;;;;9.32;6.80;;;;;;;24.66;100.00;101218.38;5266807;28;20490;-69
2021/09/14 12:24:32;;;;;;;8.13;7.03;;;;;;;24.67;100.00;101204.78;5266730;28;20032;-69
2021/09/14 12:27:04;;;;;;;7.00;6.30;;;;;;;24.59;100.00;101215.75;5266739;28;20370;-69